Time;durP1;ratioP1;P1;durP2;ratioP2;P2;SDS_P1;SDS_P2;PMS_P1;PMS_P2;Temp;Humidity;BMP_temperature;BMP_pressure;BME280_temperature;BME280_humidity;BME280_pressure;Samples;Min_cycle;Max_cycle;Signal;HPM_P1;HPM_P2
2021/12/25 00:01:21;;;;;;;15.23;14.63;;;18.40;93.60;;;;;;5022313;28;20489;-52
2021/12/25 00:03:50;;;;;;;14.50;14.00;;;18.40;93.40;;;;;;5022113;28;20476;-50
2021/12/25 00:06:17;;;;;;;14.50;14.10;;;18.50;93.50;;;;;;5021997;28;21191;-52
2021/12/25 00:08:44;;;;;;;14.73;14.13;;;18.50;93.10;;;;;;5022114;28;20902;-51
2021/12/25 00:11:12;;;;;;;14.03;13.63;;;18.40;93.20;;;;;;5022175;28;20453;-52
2021/12/25 00:13:40;;;;;;;14.70;14.20;;;18.40;93.00;;;;;;5021573;28;20875;-51
2021/12/25 00:16:07;;;;;;;14.53;14.10;;;18.40;93.00;;;;;;5022059;28;20449;-52
2021/12/25 00:18:35;;;;;;;14.10;13.57;;;18.40;93.20;;;;;;5022019;28;21017;-50
2021/12/25 00:21:02;;;;;;;14.60;14.10;;;18.40;93.30;;;;;;5021885;28;20449;-50
2021/12/25 00:23:29;;;;;;;14.80;14.30;;;18.40;93.50;;;;;;5021761;28;20448;-51
2021/12/25 00:26:03;;;;;;;14.43;14.03;;;18.40;93.80;;;;;;5028564;28;20445;-50
2021/12/25 00:28:53;;;;;;;14.63;14.13;;;18.40;93.30;;;;;;5033644;28;20464;-52
2021/12/25 00:31:44;;;;;;;14.80;14.30;;;18.30;92.60;;;;;;5033631;28;20478;-51
2021/12/25 00:34:14;;;;;;;14.60;13.80;;;18.20;92.20;;;;;;5033621;28;20469;-51
2021/12/25 00:36:41;;;;;;;14.60;14.03;;;18.20;92.00;;;;;;5033363;28;20843;-50
2021/12/25 00:39:07;;;;;;;14.23;13.73;;;18.20;91.80;;;;;;5033567;28;20524;-50
2021/12/25 00:41:34;;;;;;;14.00;13.60;;;18.10;91.60;;;;;;5033416;28;20828;-50
2021/12/25 00:44:02;;;;;;;14.90;14.30;;;18.10;91.60;;;;;;5033375;28;20490;-53
2021/12/25 00:46:29;;;;;;;14.20;13.70;;;18.10;91.40;;;;;;5033295;28;20492;-52
2021/12/25 00:48:55;;;;;;;14.83;14.23;;;18.10;91.20;;;;;;5033183;28;20445;-50
2021/12/25 00:51:22;;;;;;;14.27;13.87;;;18.10;91.10;;;;;;5033319;28;20464;-50
2021/12/25 00:53:49;;;;;;;15.10;14.50;;;18.00;91.00;;;;;;5032882;28;20472;-50
2021/12/25 00:56:16;;;;;;;14.63;14.23;;;18.00;90.90;;;;;;5033280;28;20476;-51
2021/12/25 00:58:43;;;;;;;14.97;14.47;;;18.00;90.90;;;;;;5032983;28;20452;-49
2021/12/25 01:01:11;;;;;;;14.60;14.10;;;18.00;90.80;;;;;;5032032;28;20441;-51
2021/12/25 01:03:38;;;;;;;14.40;13.90;;;17.90;90.70;;;;;;5032698;28;20445;-50
2021/12/25 01:06:05;;;;;;;15.30;14.77;;;17.90;90.60;;;;;;5033049;28;20453;-51
2021/12/25 01:08:31;;;;;;;13.90;13.50;;;17.90;90.60;;;;;;5032701;28;20819;-51
2021/12/25 01:10:58;;;;;;;14.20;13.70;;;17.90;90.50;;;;;;5033024;28;20806;-51
2021/12/25 01:13:29;;;;;;;13.93;13.50;;;17.90;90.60;;;;;;5032625;28;20818;-50
2021/12/25 01:16:10;;;;;;;14.47;14.07;;;17.80;90.40;;;;;;5032964;28;20879;-49
2021/12/25 01:21:53;;;;;;;13.77;13.37;;;17.80;90.50;;;;;;5013122;28;20867;-50
2021/12/25 01:27:29;;;;;;;14.17;13.77;;;17.80;90.40;;;;;;5012965;28;20468;-49
2021/12/25 01:30:03;;;;;;;14.40;13.90;;;17.70;90.50;;;;;;5012819;28;20446;-50
2021/12/25 01:32:58;;;;;;;13.73;13.33;;;17.70;90.40;;;;;;5027857;28;20483;-50
2021/12/25 01:35:42;;;;;;;14.30;13.70;;;17.70;90.50;;;;;;5032415;28;20994;-49
2021/12/25 01:38:23;;;;;;;14.17;13.67;;;17.70;90.60;;;;;;5032551;28;20452;-51
2021/12/25 01:40:59;;;;;;;14.40;13.90;;;17.60;90.60;;;;;;5032562;28;20796;-53
2021/12/25 01:48:54;;;;;;;14.00;13.60;;;17.60;90.70;;;;;;5032336;28;20984;-49
2021/12/25 01:51:22;;;;;;;14.80;14.30;;;17.60;90.80;;;;;;5031764;28;20444;-51
2021/12/25 01:53:49;;;;;;;14.70;14.20;;;17.60;90.80;;;;;;5031553;28;20841;-54
2021/12/25 01:56:16;;;;;;;14.50;14.10;;;17.60;90.80;;;;;;5032144;28;20445;-50
2021/12/25 01:58:42;;;;;;;14.63;14.13;;;17.50;90.70;;;;;;5032194;28;20437;-50
2021/12/25 02:01:10;;;;;;;15.03;14.53;;;17.50;90.80;;;;;;5032117;28;20449;-52
2021/12/25 02:03:38;;;;;;;14.10;13.70;;;17.50;90.80;;;;;;5031272;28;20857;-50
2021/12/25 02:06:08;;;;;;;13.80;13.40;;;17.50;90.90;;;;;;5063218;22;20499;-47
2021/12/25 02:08:37;;;;;;;14.17;13.70;;;17.50;90.90;;;;;;5012145;28;20517;-48
2021/12/25 02:11:04;;;;;;;13.80;13.40;;;17.50;90.90;;;;;;5020294;28;20441;-46
2021/12/25 02:13:31;;;;;;;13.90;13.40;;;17.50;90.90;;;;;;5031624;28;20911;-50
2021/12/25 02:16:00;;;;;;;13.97;13.57;;;17.50;90.90;;;;;;5031848;28;20492;-47
2021/12/25 02:18:32;;;;;;;13.37;12.97;;;17.40;90.90;;;;;;5031685;28;20449;-48
2021/12/25 02:21:08;;;;;;;13.60;13.20;;;17.40;91.10;;;;;;5031601;28;20798;-47
2021/12/25 02:23:36;;;;;;;13.30;12.90;;;17.40;91.20;;;;;;5031472;28;20522;-49
2021/12/25 02:26:03;;;;;;;13.77;13.37;;;17.40;91.30;;;;;;5031668;28;20477;-48
2021/12/25 02:28:30;;;;;;;13.90;13.50;;;17.40;91.30;;;;;;5031556;28;20551;-48
2021/12/25 02:31:02;;;;;;;13.90;13.50;;;17.40;91.30;;;;;;5031733;28;20448;-46
2021/12/25 02:33:30;;;;;;;13.73;13.30;;;17.30;91.30;;;;;;5031161;28;20965;-48
2021/12/25 02:35:57;;;;;;;13.33;12.93;;;17.40;91.30;;;;;;5031636;28;20469;-47
2021/12/25 02:38:26;;;;;;;14.33;13.83;;;17.30;91.30;;;;;;5031608;28;20445;-48
2021/12/25 02:40:53;;;;;;;13.73;13.33;;;17.30;91.30;;;;;;5031566;28;20449;-48
2021/12/25 02:43:20;;;;;;;13.50;13.10;;;17.30;91.40;;;;;;5031292;28;20922;-47
2021/12/25 02:45:47;;;;;;;13.87;13.47;;;17.30;91.40;;;;;;5031116;28;20826;-48
2021/12/25 02:48:17;;;;;;;13.90;13.50;;;17.30;91.40;;;;;;5031256;28;20997;-47
2021/12/25 02:50:44;;;;;;;13.70;13.30;;;17.30;91.50;;;;;;5031431;28;20453;-47
2021/12/25 02:53:12;;;;;;;13.70;13.30;;;17.30;91.50;;;;;;5031281;28;20822;-47
2021/12/25 02:55:42;;;;;;;14.23;13.83;;;17.30;91.50;;;;;;5031028;28;20833;-49
2021/12/25 02:58:10;;;;;;;14.80;14.30;;;17.30;91.60;;;;;;5031352;28;20448;-49
2021/12/25 03:00:39;;;;;;;14.00;13.50;;;17.30;91.60;;;;;;5031334;28;20467;-47
2021/12/25 03:03:07;;;;;;;13.73;13.33;;;17.30;91.50;;;;;;5031017;28;20995;-50
2021/12/25 03:05:35;;;;;;;14.43;14.03;;;17.20;91.50;;;;;;5031184;28;20480;-47
2021/12/25 03:08:03;;;;;;;13.97;13.57;;;17.20;91.60;;;;;;5031010;28;20477;-47
2021/12/25 03:10:32;;;;;;;14.40;13.90;;;17.20;91.60;;;;;;5031214;28;20446;-47
2021/12/25 03:13:17;;;;;;;14.30;13.80;;;17.20;91.50;;;;;;5031093;28;20449;-47
2021/12/25 03:15:47;;;;;;;14.43;13.93;;;17.20;91.60;;;;;;5031288;28;20500;-49
2021/12/25 03:18:14;;;;;;;13.87;13.47;;;17.20;91.50;;;;;;5031209;28;20540;-47
2021/12/25 03:20:44;;;;;;;14.10;13.70;;;17.20;91.50;;;;;;5030737;28;20453;-47
2021/12/25 03:23:12;;;;;;;13.80;13.40;;;17.20;91.60;;;;;;5031009;28;20942;-47
2021/12/25 03:25:39;;;;;;;14.37;13.90;;;17.20;91.60;;;;;;5034837;28;20460;-48
2021/12/25 03:28:07;;;;;;;13.97;13.57;;;17.10;91.70;;;;;;5034979;28;20487;-48
2021/12/25 03:30:37;;;;;;;14.00;13.60;;;17.10;91.80;;;;;;5034509;28;20445;-47
2021/12/25 03:33:05;;;;;;;14.20;13.80;;;17.10;91.80;;;;;;5034787;28;20472;-47
2021/12/25 03:35:33;;;;;;;14.47;14.03;;;17.10;91.90;;;;;;5034732;28;20468;-47
2021/12/25 03:38:00;;;;;;;13.83;13.43;;;17.10;92.00;;;;;;5034746;28;20453;-47
2021/12/25 03:40:27;;;;;;;14.00;13.60;;;17.00;92.00;;;;;;5034680;28;20475;-49
2021/12/25 03:42:54;;;;;;;13.47;13.07;;;17.00;92.00;;;;;;5034210;28;20452;-47
2021/12/25 03:45:22;;;;;;;13.70;13.30;;;17.00;92.20;;;;;;5034516;28;20476;-47
2021/12/25 03:47:51;;;;;;;13.63;13.23;;;17.10;92.10;;;;;;5034468;28;20546;-49
2021/12/25 03:53:12;;;;;;;13.47;13.07;;;17.10;92.10;;;;;;5034436;28;20893;-47
2021/12/25 03:58:29;;;;;;;13.67;13.27;;;17.00;92.20;;;;;;5034481;28;20432;-46
2021/12/25 04:01:02;;;;;;;14.10;13.60;;;17.00;92.20;;;;;;5034385;28;20445;-48
2021/12/25 04:03:41;;;;;;;14.00;13.60;;;17.00;92.50;;;;;;5034101;28;20885;-47
2021/12/25 04:06:10;;;;;;;14.10;13.70;;;17.00;92.70;;;;;;5034113;28;20476;-48
2021/12/25 04:08:42;;;;;;;13.80;13.40;;;17.00;92.70;;;;;;5033795;28;20481;-47
2021/12/25 04:11:13;;;;;;;14.07;13.57;;;17.00;92.80;;;;;;5034175;28;20441;-47
2021/12/25 04:13:40;;;;;;;14.37;13.87;;;17.00;92.80;;;;;;5034058;28;20465;-48
2021/12/25 04:16:08;;;;;;;13.40;13.00;;;17.00;92.80;;;;;;5034203;28;20531;-49
2021/12/25 04:18:35;;;;;;;13.47;13.07;;;17.00;92.80;;;;;;5033848;28;20445;-48
2021/12/25 04:21:01;;;;;;;13.70;13.30;;;17.00;92.90;;;;;;5014250;28;20457;-52
2021/12/25 04:23:29;;;;;;;13.50;13.10;;;17.00;93.00;;;;;;5013853;28;20454;-46
2021/12/25 04:25:57;;;;;;;13.67;13.27;;;17.00;93.20;;;;;;5014046;28;20470;-48
2021/12/25 04:28:35;;;;;;;13.83;13.43;;;16.90;93.20;;;;;;5014114;28;20537;-47
2021/12/25 04:31:22;;;;;;;13.90;13.50;;;16.90;93.30;;;;;;5017954;28;20445;-47
2021/12/25 04:48:25;;;;;;;13.57;13.07;;;17.00;93.50;;;;;;5033622;28;20535;-48
2021/12/25 05:01:51;;;;;;;13.30;12.90;;;16.90;94.00;;;;;;5033185;28;20424;-49
2021/12/25 05:04:23;;;;;;;14.13;13.63;;;17.00;93.90;;;;;;5032976;28;20564;-47
2021/12/25 05:06:51;;;;;;;14.50;14.07;;;17.00;93.70;;;;;;5032849;28;20468;-49
2021/12/25 05:09:18;;;;;;;13.97;13.57;;;17.00;93.70;;;;;;5033035;28;20892;-48
2021/12/25 05:11:45;;;;;;;14.57;13.87;;;17.00;93.80;;;;;;5032561;28;20452;-47
2021/12/25 05:14:12;;;;;;;14.13;13.73;;;16.90;93.70;;;;;;5032532;28;20512;-47
2021/12/25 05:16:38;;;;;;;14.57;14.07;;;17.00;93.70;;;;;;5032875;28;20822;-46
2021/12/25 05:19:05;;;;;;;14.10;13.70;;;17.00;93.60;;;;;;5032636;28;20441;-47
2021/12/25 05:21:32;;;;;;;14.07;13.67;;;16.90;93.70;;;;;;5032691;28;20446;-48
2021/12/25 05:24:00;;;;;;;14.60;14.10;;;16.90;93.70;;;;;;5032647;28;20476;-47
2021/12/25 05:26:27;;;;;;;14.00;13.60;;;16.80;93.80;;;;;;5032785;28;20487;-47
2021/12/25 05:28:59;;;;;;;14.30;13.90;;;16.80;93.90;;;;;;5032571;28;20492;-48
2021/12/25 05:31:27;;;;;;;14.17;13.77;;;16.90;94.00;;;;;;5032519;28;20457;-48
2021/12/25 05:33:54;;;;;;;13.93;13.53;;;16.90;94.00;;;;;;5032411;28;20477;-46
2021/12/25 05:36:21;;;;;;;13.80;13.40;;;16.90;94.10;;;;;;5032612;28;20449;-47
2021/12/25 05:38:48;;;;;;;14.03;13.63;;;16.90;93.90;;;;;;5032402;28;20445;-47
2021/12/25 05:41:17;;;;;;;14.07;13.57;;;16.90;93.80;;;;;;5032456;28;20449;-47
2021/12/25 05:43:44;;;;;;;13.97;13.57;;;16.90;93.80;;;;;;5031711;28;20449;-47
2021/12/25 05:46:10;;;;;;;13.60;13.20;;;16.90;93.80;;;;;;5031452;28;20843;-47
2021/12/25 05:48:37;;;;;;;13.83;13.43;;;16.90;93.70;;;;;;5032258;28;21050;-47
2021/12/25 05:51:05;;;;;;;13.87;13.47;;;16.90;94.70;;;;;;5032396;28;20849;-47
2021/12/25 05:53:32;;;;;;;14.43;13.93;;;17.80;93.90;;;;;;5032059;28;20957;-47
2021/12/25 05:55:59;;;;;;;13.60;13.20;;;18.60;91.00;;;;;;5031867;28;20989;-47
2021/12/25 05:58:27;;;;;;;13.90;13.50;;;19.00;87.90;;;;;;5032155;28;20829;-46
2021/12/25 06:00:54;;;;;;;13.60;13.20;;;19.10;84.90;;;;;;5032211;28;20449;-47
2021/12/25 06:03:20;;;;;;;14.27;13.80;;;19.40;82.80;;;;;;5031881;28;20449;-49
2021/12/25 06:05:47;;;;;;;13.70;13.30;;;19.60;80.50;;;;;;5031916;28;20473;-48
2021/12/25 06:08:15;;;;;;;14.40;14.00;;;19.60;78.70;;;;;;5031584;28;21032;-47
2021/12/25 06:10:42;;;;;;;14.60;14.20;;;19.70;77.30;;;;;;5031764;28;20452;-47
2021/12/25 06:13:11;;;;;;;14.37;13.97;;;19.70;75.90;;;;;;5031596;28;20445;-47
2021/12/25 06:15:39;;;;;;;14.47;14.07;;;19.80;75.00;;;;;;5032020;28;20899;-47
2021/12/25 06:18:08;;;;;;;14.93;14.43;;;19.90;74.30;;;;;;5031808;28;20803;-47
2021/12/25 06:20:35;;;;;;;14.27;13.87;;;19.80;73.40;;;;;;5031619;28;20448;-46
2021/12/25 06:23:02;;;;;;;13.93;13.53;;;19.90;72.90;;;;;;5031591;28;20457;-47
2021/12/25 06:25:29;;;;;;;14.10;13.70;;;19.90;72.40;;;;;;5031655;28;20832;-52
2021/12/25 06:27:56;;;;;;;14.07;13.67;;;19.80;71.80;;;;;;5031524;28;20480;-49
2021/12/25 06:30:23;;;;;;;13.77;13.37;;;19.90;71.10;;;;;;5031465;28;20449;-52
2021/12/25 06:32:51;;;;;;;14.20;13.80;;;19.90;70.70;;;;;;5031333;28;20457;-46
2021/12/25 06:35:18;;;;;;;14.20;13.80;;;19.90;70.50;;;;;;5031583;28;20845;-47
2021/12/25 06:37:46;;;;;;;13.80;13.40;;;19.80;70.10;;;;;;5031536;28;20963;-46
2021/12/25 06:40:17;;;;;;;14.60;14.20;;;19.80;69.80;;;;;;5031547;28;20487;-48
2021/12/25 06:42:45;;;;;;;14.30;13.90;;;19.80;69.70;;;;;;5031087;28;20453;-48
2021/12/25 06:45:11;;;;;;;14.00;13.60;;;19.80;69.50;;;;;;5031184;28;20461;-47
2021/12/25 06:47:39;;;;;;;14.10;13.70;;;19.70;69.20;;;;;;5031570;28;20448;-47
2021/12/25 06:50:08;;;;;;;18.60;14.00;;;19.70;69.20;;;;;;5031467;28;20570;-47
2021/12/25 06:52:35;;;;;;;14.20;13.80;;;19.70;69.00;;;;;;5031234;28;20452;-48
2021/12/25 06:55:02;;;;;;;14.90;14.40;;;19.70;68.70;;;;;;5031071;28;20457;-47
2021/12/25 06:57:29;;;;;;;14.50;14.10;;;19.70;68.80;;;;;;5031119;28;20453;-47
2021/12/25 06:59:56;;;;;;;14.90;14.40;;;19.60;68.60;;;;;;5034523;28;20441;-47
2021/12/25 07:02:23;;;;;;;14.50;14.10;;;19.60;68.60;;;;;;5035228;28;20456;-46
2021/12/25 07:04:49;;;;;;;14.60;14.20;;;19.60;68.50;;;;;;5035127;28;20487;-48
2021/12/25 07:07:18;;;;;;;14.10;13.70;;;19.50;68.40;;;;;;5035190;28;20820;-47
2021/12/25 07:09:44;;;;;;;14.67;14.17;;;19.50;68.40;;;;;;5035346;28;20481;-47
2021/12/25 07:12:11;;;;;;;15.37;14.90;;;19.50;68.30;;;;;;5035002;28;20449;-47
2021/12/25 07:14:38;;;;;;;14.73;14.33;;;19.50;68.30;;;;;;5035106;28;20468;-47
2021/12/25 07:17:04;;;;;;;14.10;13.60;;;19.40;68.40;;;;;;5035270;28;20452;-51
2021/12/25 07:19:31;;;;;;;13.90;13.50;;;19.40;68.40;;;;;;5034973;28;20445;-46
2021/12/25 07:21:58;;;;;;;14.20;13.80;;;19.40;68.30;;;;;;5034862;28;20449;-47
2021/12/25 07:24:26;;;;;;;14.43;13.93;;;19.50;69.00;;;;;;5035080;28;20842;-48
2021/12/25 07:26:52;;;;;;;14.40;14.00;;;19.50;69.00;;;;;;5034767;28;20445;-48
2021/12/25 07:29:19;;;;;;;13.80;13.40;;;19.60;69.90;;;;;;5034850;28;20480;-49
2021/12/25 07:31:46;;;;;;;14.30;13.90;;;19.60;69.00;;;;;;5034826;28;20448;-50
2021/12/25 07:34:12;;;;;;;14.40;14.00;;;19.60;68.90;;;;;;5034803;28;20452;-47
2021/12/25 07:36:39;;;;;;;14.20;13.80;;;19.60;69.20;;;;;;5034871;28;20448;-49
2021/12/25 07:39:06;;;;;;;15.13;14.63;;;19.40;69.40;;;;;;5034769;28;20445;-48
2021/12/25 07:41:34;;;;;;;10.90;10.60;;;19.30;70.30;;;;;;5034092;28;20799;-46
2021/12/25 07:44:01;;;;;;;12.40;12.10;;;19.20;71.40;;;;;;5034842;28;20199;-47
2021/12/25 07:46:28;;;;;;;12.10;11.80;;;19.20;71.80;;;;;;5034691;28;20476;-48
2021/12/25 07:48:55;;;;;;;11.73;11.43;;;19.10;72.20;;;;;;5034553;28;20481;-46
2021/12/25 07:51:21;;;;;;;11.50;11.20;;;19.10;72.60;;;;;;5034890;28;20456;-48
2021/12/25 07:53:49;;;;;;;12.10;11.80;;;19.10;73.00;;;;;;5034688;28;20449;-47
2021/12/25 07:56:16;;;;;;;12.00;11.70;;;19.00;73.30;;;;;;5034449;28;21033;-49
2021/12/25 07:58:44;;;;;;;11.97;11.67;;;18.90;73.60;;;;;;5034458;28;20453;-48
2021/12/25 08:01:10;;;;;;;11.60;11.30;;;18.90;74.10;;;;;;5034266;28;20813;-47
2021/12/25 08:03:37;;;;;;;12.10;11.80;;;18.90;74.50;;;;;;5034010;28;20877;-47
2021/12/25 08:06:04;;;;;;;12.50;12.20;;;18.80;74.60;;;;;;5034508;28;21028;-48
2021/12/25 08:08:31;;;;;;;11.80;11.40;;;18.80;75.20;;;;;;5033623;28;20938;-51
2021/12/25 08:10:58;;;;;;;10.20;9.90;;;18.80;75.40;;;;;;5032468;28;20802;-51
2021/12/25 08:13:24;;;;;;;11.20;10.90;;;18.80;75.80;;;;;;5033655;28;20445;-47
2021/12/25 08:15:52;;;;;;;12.30;12.00;;;18.90;76.00;;;;;;5033830;28;20226;-50
2021/12/25 08:18:19;;;;;;;12.00;11.70;;;18.90;76.20;;;;;;5033984;28;20449;-48
2021/12/25 08:20:46;;;;;;;12.30;12.00;;;18.90;75.90;;;;;;5033983;28;20452;-47
2021/12/25 08:23:13;;;;;;;11.67;11.37;;;18.90;76.20;;;;;;5033736;28;20799;-47
2021/12/25 08:25:40;;;;;;;12.20;11.90;;;18.90;76.00;;;;;;5033563;28;20472;-49
2021/12/25 08:28:06;;;;;;;12.80;12.50;;;18.80;76.50;;;;;;5033840;28;20953;-50
2021/12/25 08:30:33;;;;;;;12.23;11.93;;;18.80;76.60;;;;;;5033708;28;20492;-47
2021/12/25 08:33:01;;;;;;;12.80;12.50;;;18.80;76.60;;;;;;5025442;28;20441;-45
2021/12/25 08:35:30;;;;;;;12.63;12.32;;;18.70;76.80;;;;;;5014164;28;20876;-49
2021/12/25 08:37:57;;;;;;;13.50;13.20;;;18.70;77.10;;;;;;5013798;28;20210;-52
2021/12/25 08:40:25;;;;;;;12.83;12.53;;;18.70;77.30;;;;;;5013974;28;20450;-50
2021/12/25 08:42:57;;;;;;;12.13;11.83;;;18.70;77.40;;;;;;5013675;28;20453;-50
2021/12/25 08:48:14;;;;;;;11.85;11.55;;;18.70;78.20;;;;;;5033232;28;20433;-48
2021/12/25 08:50:44;;;;;;;12.83;12.43;;;18.60;78.20;;;;;;5033490;28;20491;-51
2021/12/25 08:53:10;;;;;;;12.07;11.77;;;18.60;78.30;;;;;;5033029;28;20441;-50
2021/12/25 08:55:37;;;;;;;12.47;12.17;;;18.60;78.60;;;;;;5032873;28;20472;-50
2021/12/25 08:58:04;;;;;;;11.97;11.67;;;18.60;78.60;;;;;;5033251;28;21061;-51
2021/12/25 09:00:31;;;;;;;11.93;11.57;;;18.60;78.80;;;;;;5033357;28;20441;-49
2021/12/25 09:02:58;;;;;;;11.73;11.43;;;18.60;78.50;;;;;;5033096;28;20452;-49
2021/12/25 09:05:26;;;;;;;12.07;11.67;;;18.60;78.50;;;;;;5032959;28;20476;-49
2021/12/25 09:07:53;;;;;;;12.40;12.10;;;18.60;78.60;;;;;;5032877;28;20457;-48
2021/12/25 09:10:20;;;;;;;10.48;10.18;;;18.70;78.90;;;;;;5032123;28;20453;-51
2021/12/25 09:12:49;;;;;;;11.40;11.10;;;18.60;79.20;;;;;;5032522;28;20444;-53
2021/12/25 09:15:17;;;;;;;11.97;11.67;;;18.60;79.10;;;;;;5033098;28;20587;-52
2021/12/25 09:17:43;;;;;;;12.03;11.73;;;18.60;79.00;;;;;;5033053;28;20445;-48
2021/12/25 09:20:11;;;;;;;10.90;10.60;;;18.70;78.70;;;;;;5032573;28;20826;-48
2021/12/25 09:22:39;;;;;;;10.90;10.60;;;18.60;78.40;;;;;;5031692;28;20477;-48
2021/12/25 09:25:07;;;;;;;11.43;11.13;;;18.60;78.70;;;;;;5032714;28;20854;-53
2021/12/25 09:27:33;;;;;;;11.23;10.73;;;18.60;79.20;;;;;;5032777;28;20813;-53
2021/12/25 09:30:00;;;;;;;11.83;11.50;;;18.60;79.40;;;;;;5032727;28;20966;-53
2021/12/25 09:32:27;;;;;;;10.67;10.47;;;18.50;79.60;;;;;;5032341;28;20448;-56
2021/12/25 09:34:54;;;;;;;12.07;11.77;;;18.50;80.30;;;;;;5032566;28;20476;-54
2021/12/25 09:37:21;;;;;;;11.27;10.98;;;18.50;80.00;;;;;;5031932;28;20449;-52
2021/12/25 09:39:49;;;;;;;11.53;11.23;;;18.50;79.20;;;;;;5032553;28;20570;-54
2021/12/25 09:42:16;;;;;;;10.20;9.90;;;18.30;79.20;;;;;;5031654;28;20448;-56
2021/12/25 09:44:43;;;;;;;11.27;10.97;;;18.40;80.80;;;;;;5032652;28;20226;-55
2021/12/25 09:47:10;;;;;;;11.10;10.80;;;18.70;81.40;;;;;;5032398;28;20448;-56
2021/12/25 09:49:36;;;;;;;11.37;11.03;;;19.90;77.50;;;;;;5032248;28;20485;-47
2021/12/25 09:52:04;;;;;;;11.60;11.30;;;20.40;72.80;;;;;;5031999;28;20595;-49
2021/12/25 09:54:31;;;;;;;11.80;11.50;;;20.80;70.00;;;;;;5032132;28;20464;-52
2021/12/25 09:56:59;;;;;;;10.85;10.55;;;21.20;68.60;;;;;;5031572;28;20437;-49
2021/12/25 09:59:28;;;;;;;11.70;11.40;;;21.60;65.80;;;;;;5032127;28;20260;-53
2021/12/25 10:01:57;;;;;;;12.40;12.10;;;21.80;63.60;;;;;;5031813;28;20804;-54
2021/12/25 10:04:35;;;;;;;11.80;11.50;;;22.20;62.20;;;;;;5031700;28;20844;-54
2021/12/25 10:07:14;;;;;;;13.10;12.70;;;22.70;59.30;;;;;;5031916;28;20447;-51
2021/12/25 10:09:41;;;;;;;12.30;12.00;;;23.10;57.40;;;;;;5032047;28;20484;-53
2021/12/25 10:12:13;;;;;;;12.80;12.50;;;23.30;56.60;;;;;;5031401;28;20448;-54
2021/12/25 10:14:43;;;;;;;12.07;11.77;;;23.40;55.30;;;;;;5031456;28;20835;-50
2021/12/25 10:17:15;;;;;;;12.07;11.77;;;23.40;54.70;;;;;;5031847;28;20456;-48
2021/12/25 10:19:42;;;;;;;11.93;11.63;;;22.90;54.60;;;;;;5031742;28;20441;-48
2021/12/25 10:22:12;;;;;;;12.73;12.43;;;23.20;54.90;;;;;;5031211;28;20445;-47
2021/12/25 10:24:47;;;;;;;12.00;11.70;;;23.80;54.10;;;;;;5031605;28;20837;-56
2021/12/25 10:27:17;;;;;;;12.13;11.83;;;24.30;52.60;;;;;;5031615;28;20498;-51
2021/12/25 10:29:44;;;;;;;12.00;11.70;;;24.40;51.50;;;;;;5031823;28;20516;-52
2021/12/25 10:32:19;;;;;;;12.30;12.00;;;24.50;50.90;;;;;;5031185;28;20468;-55
2021/12/25 10:34:47;;;;;;;12.50;12.20;;;24.50;51.10;;;;;;5031411;28;20476;-52
2021/12/25 10:37:17;;;;;;;11.90;11.60;;;24.40;50.30;;;;;;5031258;28;20445;-54
2021/12/25 10:39:44;;;;;;;12.57;12.27;;;24.40;50.10;;;;;;5031667;28;20499;-51
2021/12/25 10:42:16;;;;;;;12.23;11.93;;;24.30;49.90;;;;;;5031609;28;20445;-57
2021/12/25 10:44:48;;;;;;;12.80;12.50;;;24.50;49.80;;;;;;5031589;28;20461;-50
2021/12/25 10:47:17;;;;;;;13.20;12.80;;;24.70;49.50;;;;;;5031549;28;20815;-49
2021/12/25 10:49:45;;;;;;;12.63;12.33;;;25.00;48.70;;;;;;5031742;28;20493;-51
2021/12/25 10:52:17;;;;;;;12.67;12.37;;;25.20;48.00;;;;;;5031474;28;20449;-52
2021/12/25 10:54:46;;;;;;;13.00;12.60;;;25.20;47.80;;;;;;5031627;28;20468;-50
2021/12/25 10:57:31;;;;;;;11.70;11.40;;;25.20;47.50;;;;;;5031536;28;20859;-48
2021/12/25 11:00:00;;;;;;;12.87;12.57;;;25.10;47.40;;;;;;5031451;28;20445;-52
2021/12/25 11:02:35;;;;;;;13.00;12.70;;;25.00;47.30;;;;;;5031058;28;20536;-49
2021/12/25 11:05:16;;;;;;;13.10;12.80;;;25.00;47.30;;;;;;5031251;28;20476;-46
2021/12/25 11:07:43;;;;;;;12.20;11.90;;;25.10;47.30;;;;;;5030877;28;20456;-52
2021/12/25 11:10:12;;;;;;;13.47;13.07;;;25.40;46.80;;;;;;5030709;28;20507;-48
2021/12/25 11:12:40;;;;;;;11.30;11.00;;;25.70;46.10;;;;;;5029960;28;20445;-45
2021/12/25 11:15:19;;;;;;;13.93;13.53;;;25.70;45.80;;;;;;5031153;28;20590;-50
2021/12/25 11:17:51;;;;;;;13.53;13.13;;;25.70;45.50;;;;;;5031111;28;20444;-48
2021/12/25 11:20:28;;;;;;;13.23;12.93;;;25.70;45.30;;;;;;5030944;28;20441;-49
2021/12/25 11:22:59;;;;;;;13.00;12.60;;;25.60;45.40;;;;;;5030966;28;20970;-50
2021/12/25 11:25:31;;;;;;;11.70;11.40;;;25.50;45.40;;;;;;5031262;28;20969;-51
2021/12/25 11:28:01;;;;;;;11.80;11.50;;;25.50;45.50;;;;;;5031082;28;20453;-47
2021/12/25 11:30:32;;;;;;;12.27;11.97;;;25.90;45.30;;;;;;5031137;28;20823;-49
2021/12/25 11:32:59;;;;;;;12.83;12.53;;;25.90;44.70;;;;;;5030724;28;20811;-50
2021/12/25 11:35:27;;;;;;;12.90;12.60;;;25.90;44.50;;;;;;5030883;28;20496;-53
2021/12/25 11:37:56;;;;;;;12.90;12.60;;;25.90;44.50;;;;;;5031089;28;20835;-48
2021/12/25 11:40:26;;;;;;;12.90;12.50;;;25.80;44.40;;;;;;5030671;28;20499;-48
2021/12/25 11:42:56;;;;;;;12.80;12.50;;;25.80;44.40;;;;;;5030712;28;20449;-47
2021/12/25 11:45:28;;;;;;;12.40;12.10;;;25.50;44.60;;;;;;5032800;28;20560;-52
2021/12/25 11:47:58;;;;;;;12.00;11.70;;;25.40;45.00;;;;;;5034738;28;20449;-48
2021/12/25 11:50:39;;;;;;;12.00;11.70;;;25.50;45.00;;;;;;5033894;28;20487;-49
2021/12/25 11:53:15;;;;;;;11.40;11.10;;;25.90;44.50;;;;;;5034376;28;20491;-50
2021/12/25 11:56:18;;;;;;;12.00;11.70;;;26.20;43.90;;;;;;5034357;28;20551;-49
2021/12/25 11:58:50;;;;;;;12.67;12.33;;;26.30;43.50;;;;;;5034060;28;20531;-51
2021/12/25 12:01:29;;;;;;;11.10;10.80;;;26.20;43.40;;;;;;5033377;28;20440;-48
2021/12/25 12:03:59;;;;;;;10.52;10.30;;;26.10;43.30;;;;;;5032878;28;20810;-54
2021/12/25 12:06:59;;;;;;;13.70;13.37;;;26.10;43.30;;;;;;5034277;28;20213;-50
2021/12/25 12:09:28;;;;;;;11.50;11.20;;;26.20;43.10;;;;;;5033257;28;20444;-52
2021/12/25 12:12:13;;;;;;;12.33;12.03;;;26.20;43.20;;;;;;5033597;28;20203;-47
2021/12/25 12:14:40;;;;;;;11.90;11.60;;;26.50;42.90;;;;;;5034019;28;20898;-50
2021/12/25 12:17:09;;;;;;;11.87;11.57;;;26.80;42.50;;;;;;5034178;28;20441;-56
2021/12/25 12:19:47;;;;;;;12.10;11.80;;;26.90;42.10;;;;;;5014147;28;20456;-52
2021/12/25 12:22:45;;;;;;;12.03;11.73;;;26.80;41.80;;;;;;5014102;28;20446;-53
2021/12/25 12:25:21;;;;;;;12.20;11.90;;;26.70;41.90;;;;;;5033322;28;21004;-52
2021/12/25 12:27:54;;;;;;;12.93;12.57;;;26.50;42.10;;;;;;5033766;28;20445;-50
2021/12/25 12:30:48;;;;;;;12.37;12.07;;;26.30;42.10;;;;;;5033760;28;20481;-53
2021/12/25 12:33:36;;;;;;;13.37;12.97;;;26.30;42.50;;;;;;5033510;28;20441;-57
2021/12/25 12:36:19;;;;;;;12.50;12.20;;;26.70;42.30;;;;;;5033481;28;20534;-51
2021/12/25 12:38:51;;;;;;;12.80;12.50;;;26.80;41.70;;;;;;5033609;28;20444;-47
2021/12/25 12:41:26;;;;;;;12.80;12.50;;;26.70;41.70;;;;;;5033677;28;20446;-54
2021/12/25 12:44:05;;;;;;;12.10;11.80;;;26.70;41.60;;;;;;5033382;28;20445;-54
2021/12/25 12:47:11;;;;;;;11.87;11.57;;;26.60;41.80;;;;;;5033612;28;20927;-54
2021/12/25 12:49:59;;;;;;;10.63;10.32;;;26.50;41.80;;;;;;5012451;28;20438;-53
2021/12/25 12:52:34;;;;;;;12.03;11.73;;;26.40;41.90;;;;;;5013554;28;20739;-55
2021/12/25 12:55:05;;;;;;;11.60;11.30;;;26.40;42.00;;;;;;5013553;28;20473;-53
2021/12/25 12:57:35;;;;;;;11.57;11.27;;;26.60;41.80;;;;;;5013697;28;20441;-54
2021/12/25 13:00:09;;;;;;;10.55;10.25;;;26.80;41.50;;;;;;5012895;28;20848;-53
2021/12/25 13:02:41;;;;;;;11.53;11.23;;;26.90;41.30;;;;;;5013156;28;20680;-53
2021/12/25 13:05:09;;;;;;;11.87;11.57;;;26.80;41.10;;;;;;5013741;28;20474;-47
2021/12/25 13:07:41;;;;;;;12.00;11.70;;;26.70;41.20;;;;;;5033121;28;20473;-48
2021/12/25 13:10:16;;;;;;;11.93;11.63;;;26.60;41.30;;;;;;5033063;28;20576;-50
2021/12/25 13:12:46;;;;;;;11.17;10.87;;;26.50;41.50;;;;;;5032950;28;20881;-47
2021/12/25 13:15:16;;;;;;;11.00;10.70;;;26.30;41.60;;;;;;5032784;28;20468;-47
2021/12/25 13:17:51;;;;;;;10.70;10.40;;;26.40;41.70;;;;;;5031571;28;20441;-55
2021/12/25 13:20:20;;;;;;;11.77;11.47;;;26.70;41.60;;;;;;5032521;28;20285;-47
2021/12/25 13:22:59;;;;;;;11.87;11.57;;;27.00;41.10;;;;;;5032599;28;20456;-53
2021/12/25 13:25:26;;;;;;;11.40;11.10;;;27.10;40.90;;;;;;5032631;28;21051;-48
2021/12/25 13:27:59;;;;;;;12.00;11.70;;;26.90;40.70;;;;;;5032718;28;20441;-50